sensor_id;sensor_type;location;lat;lon;timestamp;P1;durP1;ratioP1;P2;durP2;ratioP2
10059;SDS011;5069;49.306;8.636;2024-02-23T00:00:55;2.20;;;0.50;;
10059;SDS011;5069;49.306;8.636;2024-02-23T00:03:56;1.13;;;0.80;;
10059;SDS011;5069;49.306;8.636;2024-02-23T00:06:58;4.70;;;0.73;;
10059;SDS011;5069;49.306;8.636;2024-02-23T00:09:59;1.23;;;0.40;;
10059;SDS011;5069;49.306;8.636;2024-02-23T00:13:01;1.50;;;0.60;;
10059;SDS011;5069;49.306;8.636;2024-02-23T00:16:03;1.80;;;0.70;;
10059;SDS011;5069;49.306;8.636;2024-02-23T00:19:05;2.50;;;0.60;;
10059;SDS011;5069;49.306;8.636;2024-02-23T00:22:06;1.73;;;0.70;;
10059;SDS011;5069;49.306;8.636;2024-02-23T00:25:09;2.53;;;0.60;;
10059;SDS011;5069;49.306;8.636;2024-02-23T00:28:11;0.77;;;0.60;;
10059;SDS011;5069;49.306;8.636;2024-02-23T00:31:12;0.90;;;0.67;;
10059;SDS011;5069;49.306;8.636;2024-02-23T00:34:14;2.37;;;0.80;;
10059;SDS011;5069;49.306;8.636;2024-02-23T00:37:16;2.53;;;0.87;;
10059;SDS011;5069;49.306;8.636;2024-02-23T00:40:17;2.47;;;0.73;;
10059;SDS011;5069;49.306;8.636;2024-02-23T00:43:19;3.63;;;0.87;;
10059;SDS011;5069;49.306;8.636;2024-02-23T00:46:21;2.97;;;0.80;;
10059;SDS011;5069;49.306;8.636;2024-02-23T00:49:23;0.93;;;0.60;;
10059;SDS011;5069;49.306;8.636;2024-02-23T00:52:25;2.40;;;0.80;;
10059;SDS011;5069;49.306;8.636;2024-02-23T00:55:26;1.83;;;0.70;;
10059;SDS011;5069;49.306;8.636;2024-02-23T00:58:28;3.87;;;1.10;;
10059;SDS011;5069;49.306;8.636;2024-02-23T01:01:29;2.73;;;0.80;;
10059;SDS011;5069;49.306;8.636;2024-02-23T01:04:31;1.73;;;0.70;;
10059;SDS011;5069;49.306;8.636;2024-02-23T01:07:32;5.27;;;0.80;;
10059;SDS011;5069;49.306;8.636;2024-02-23T01:10:34;2.50;;;0.93;;
10059;SDS011;5069;49.306;8.636;2024-02-23T01:13:36;3.03;;;0.90;;
10059;SDS011;5069;49.306;8.636;2024-02-23T01:16:37;1.73;;;0.80;;
10059;SDS011;5069;49.306;8.636;2024-02-23T01:19:39;3.80;;;0.87;;
10059;SDS011;5069;49.306;8.636;2024-02-23T01:22:42;1.77;;;0.60;;
10059;SDS011;5069;49.306;8.636;2024-02-23T01:25:44;3.73;;;0.80;;
10059;SDS011;5069;49.306;8.636;2024-02-23T01:28:45;3.00;;;0.70;;
10059;SDS011;5069;49.306;8.636;2024-02-23T01:31:47;2.67;;;0.93;;
10059;SDS011;5069;49.306;8.636;2024-02-23T01:34:48;3.30;;;0.87;;
10059;SDS011;5069;49.306;8.636;2024-02-23T01:37:50;2.43;;;0.87;;
10059;SDS011;5069;49.306;8.636;2024-02-23T01:40:51;4.33;;;1.00;;
10059;SDS011;5069;49.306;8.636;2024-02-23T01:43:53;3.70;;;1.13;;
10059;SDS011;5069;49.306;8.636;2024-02-23T01:46:54;3.70;;;0.67;;
10059;SDS011;5069;49.306;8.636;2024-02-23T01:49:57;2.20;;;0.90;;
10059;SDS011;5069;49.306;8.636;2024-02-23T01:53:01;5.43;;;1.00;;
10059;SDS011;5069;49.306;8.636;2024-02-23T01:56:04;2.27;;;0.87;;
10059;SDS011;5069;49.306;8.636;2024-02-23T01:59:06;2.60;;;0.60;;
10059;SDS011;5069;49.306;8.636;2024-02-23T02:02:11;3.03;;;0.70;;
10059;SDS011;5069;49.306;8.636;2024-02-23T02:05:13;1.70;;;0.60;;
10059;SDS011;5069;49.306;8.636;2024-02-23T02:08:15;3.77;;;1.00;;
10059;SDS011;5069;49.306;8.636;2024-02-23T02:11:18;2.77;;;0.90;;
10059;SDS011;5069;49.306;8.636;2024-02-23T02:14:20;3.63;;;1.00;;
10059;SDS011;5069;49.306;8.636;2024-02-23T02:17:21;2.33;;;0.90;;
10059;SDS011;5069;49.306;8.636;2024-02-23T02:20:24;2.13;;;0.83;;
10059;SDS011;5069;49.306;8.636;2024-02-23T02:23:27;4.70;;;1.00;;
10059;SDS011;5069;49.306;8.636;2024-02-23T02:26:29;6.10;;;1.00;;
10059;SDS011;5069;49.306;8.636;2024-02-23T02:29:31;2.43;;;1.37;;
10059;SDS011;5069;49.306;8.636;2024-02-23T02:32:32;6.97;;;1.20;;
10059;SDS011;5069;49.306;8.636;2024-02-23T02:35:37;5.07;;;1.30;;
10059;SDS011;5069;49.306;8.636;2024-02-23T02:38:39;4.47;;;1.10;;
10059;SDS011;5069;49.306;8.636;2024-02-23T02:41:41;4.53;;;1.10;;
10059;SDS011;5069;49.306;8.636;2024-02-23T02:44:42;2.93;;;0.90;;
10059;SDS011;5069;49.306;8.636;2024-02-23T02:47:44;2.90;;;1.10;;
10059;SDS011;5069;49.306;8.636;2024-02-23T02:50:45;4.50;;;1.07;;
10059;SDS011;5069;49.306;8.636;2024-02-23T02:53:47;3.27;;;1.00;;
10059;SDS011;5069;49.306;8.636;2024-02-23T02:56:48;5.43;;;1.30;;
10059;SDS011;5069;49.306;8.636;2024-02-23T02:59:51;5.93;;;1.13;;
10059;SDS011;5069;49.306;8.636;2024-02-23T03:02:53;2.30;;;0.90;;
10059;SDS011;5069;49.306;8.636;2024-02-23T03:05:55;4.63;;;0.83;;
10059;SDS011;5069;49.306;8.636;2024-02-23T03:08:57;4.57;;;1.17;;
10059;SDS011;5069;49.306;8.636;2024-02-23T03:11:58;1.37;;;0.90;;
10059;SDS011;5069;49.306;8.636;2024-02-23T03:14:59;5.10;;;1.00;;
10059;SDS011;5069;49.306;8.636;2024-02-23T03:18:01;4.47;;;1.00;;
10059;SDS011;5069;49.306;8.636;2024-02-23T03:21:03;3.30;;;0.73;;
10059;SDS011;5069;49.306;8.636;2024-02-23T03:24:05;3.63;;;1.00;;
10059;SDS011;5069;49.306;8.636;2024-02-23T03:27:06;3.33;;;0.90;;
10059;SDS011;5069;49.306;8.636;2024-02-23T03:30:08;2.40;;;0.80;;
10059;SDS011;5069;49.306;8.636;2024-02-23T03:33:10;3.50;;;0.80;;
10059;SDS011;5069;49.306;8.636;2024-02-23T03:36:12;3.43;;;0.83;;
10059;SDS011;5069;49.306;8.636;2024-02-23T03:39:13;1.93;;;0.80;;
10059;SDS011;5069;49.306;8.636;2024-02-23T03:42:15;4.20;;;1.17;;
10059;SDS011;5069;49.306;8.636;2024-02-23T03:45:17;3.93;;;0.97;;
10059;SDS011;5069;49.306;8.636;2024-02-23T03:48:18;4.23;;;0.87;;
10059;SDS011;5069;49.306;8.636;2024-02-23T03:51:20;2.47;;;0.80;;
10059;SDS011;5069;49.306;8.636;2024-02-23T03:54:21;3.60;;;0.70;;
10059;SDS011;5069;49.306;8.636;2024-02-23T03:57:23;3.27;;;0.80;;
10059;SDS011;5069;49.306;8.636;2024-02-23T04:00:24;2.73;;;0.83;;
10059;SDS011;5069;49.306;8.636;2024-02-23T04:03:25;1.33;;;0.63;;
10059;SDS011;5069;49.306;8.636;2024-02-23T04:06:27;2.60;;;0.77;;
10059;SDS011;5069;49.306;8.636;2024-02-23T04:09:28;4.10;;;0.63;;
10059;SDS011;5069;49.306;8.636;2024-02-23T04:12:30;3.53;;;0.60;;
10059;SDS011;5069;49.306;8.636;2024-02-23T04:15:32;2.63;;;0.60;;
10059;SDS011;5069;49.306;8.636;2024-02-23T04:18:33;1.80;;;0.87;;
10059;SDS011;5069;49.306;8.636;2024-02-23T04:21:35;1.80;;;0.93;;
10059;SDS011;5069;49.306;8.636;2024-02-23T04:24:40;1.67;;;0.63;;
10059;SDS011;5069;49.306;8.636;2024-02-23T04:27:42;3.93;;;0.90;;
10059;SDS011;5069;49.306;8.636;2024-02-23T04:30:44;2.50;;;0.60;;
10059;SDS011;5069;49.306;8.636;2024-02-23T04:33:46;1.87;;;0.67;;
10059;SDS011;5069;49.306;8.636;2024-02-23T04:36:47;3.13;;;1.17;;
10059;SDS011;5069;49.306;8.636;2024-02-23T04:39:48;5.83;;;1.10;;
10059;SDS011;5069;49.306;8.636;2024-02-23T04:42:50;2.37;;;0.70;;
10059;SDS011;5069;49.306;8.636;2024-02-23T04:45:51;2.27;;;0.80;;
10059;SDS011;5069;49.306;8.636;2024-02-23T04:48:53;4.13;;;1.00;;
10059;SDS011;5069;49.306;8.636;2024-02-23T04:51:54;2.10;;;1.00;;
10059;SDS011;5069;49.306;8.636;2024-02-23T04:54:56;4.23;;;0.80;;
10059;SDS011;5069;49.306;8.636;2024-02-23T04:57:57;2.30;;;0.73;;
10059;SDS011;5069;49.306;8.636;2024-02-23T05:00:59;4.63;;;0.90;;
10059;SDS011;5069;49.306;8.636;2024-02-23T05:04:01;1.93;;;0.70;;
10059;SDS011;5069;49.306;8.636;2024-02-23T05:07:03;3.13;;;0.90;;
10059;SDS011;5069;49.306;8.636;2024-02-23T05:10:04;4.53;;;1.00;;
10059;SDS011;5069;49.306;8.636;2024-02-23T05:13:06;4.50;;;1.00;;
10059;SDS011;5069;49.306;8.636;2024-02-23T05:16:08;2.73;;;0.80;;
10059;SDS011;5069;49.306;8.636;2024-02-23T05:19:09;3.03;;;1.10;;
10059;SDS011;5069;49.306;8.636;2024-02-23T05:22:11;3.20;;;0.70;;
10059;SDS011;5069;49.306;8.636;2024-02-23T05:25:12;2.80;;;0.90;;
10059;SDS011;5069;49.306;8.636;2024-02-23T05:28:14;2.40;;;0.90;;
10059;SDS011;5069;49.306;8.636;2024-02-23T05:31:15;3.63;;;0.73;;
10059;SDS011;5069;49.306;8.636;2024-02-23T05:34:17;2.63;;;0.77;;
10059;SDS011;5069;49.306;8.636;2024-02-23T05:37:19;1.47;;;0.60;;
10059;SDS011;5069;49.306;8.636;2024-02-23T05:40:21;2.60;;;0.87;;
10059;SDS011;5069;49.306;8.636;2024-02-23T05:43:22;4.93;;;1.00;;
10059;SDS011;5069;49.306;8.636;2024-02-23T05:46:24;3.67;;;0.90;;
10059;SDS011;5069;49.306;8.636;2024-02-23T05:49:26;3.20;;;1.10;;
10059;SDS011;5069;49.306;8.636;2024-02-23T05:52:27;2.00;;;0.73;;
10059;SDS011;5069;49.306;8.636;2024-02-23T05:55:29;3.90;;;1.07;;
10059;SDS011;5069;49.306;8.636;2024-02-23T05:58:30;2.83;;;0.80;;
10059;SDS011;5069;49.306;8.636;2024-02-23T06:01:31;5.80;;;1.07;;
10059;SDS011;5069;49.306;8.636;2024-02-23T06:04:33;3.77;;;1.10;;
10059;SDS011;5069;49.306;8.636;2024-02-23T06:07:35;2.07;;;0.80;;
10059;SDS011;5069;49.306;8.636;2024-02-23T06:10:38;3.67;;;0.77;;
10059;SDS011;5069;49.306;8.636;2024-02-23T06:13:39;1.83;;;0.80;;
10059;SDS011;5069;49.306;8.636;2024-02-23T06:16:41;2.50;;;0.90;;
10059;SDS011;5069;49.306;8.636;2024-02-23T06:19:42;2.70;;;1.03;;
10059;SDS011;5069;49.306;8.636;2024-02-23T06:22:44;4.50;;;0.70;;
10059;SDS011;5069;49.306;8.636;2024-02-23T06:25:45;3.10;;;0.63;;
10059;SDS011;5069;49.306;8.636;2024-02-23T06:28:48;4.40;;;0.80;;
10059;SDS011;5069;49.306;8.636;2024-02-23T06:31:50;2.83;;;0.70;;
10059;SDS011;5069;49.306;8.636;2024-02-23T06:34:51;2.10;;;0.70;;
10059;SDS011;5069;49.306;8.636;2024-02-23T06:37:53;2.37;;;0.70;;
10059;SDS011;5069;49.306;8.636;2024-02-23T06:40:54;2.60;;;0.93;;
10059;SDS011;5069;49.306;8.636;2024-02-23T06:43:57;2.40;;;0.90;;
10059;SDS011;5069;49.306;8.636;2024-02-23T06:46:59;6.70;;;1.00;;
10059;SDS011;5069;49.306;8.636;2024-02-23T06:50:00;3.53;;;0.97;;
10059;SDS011;5069;49.306;8.636;2024-02-23T06:53:02;3.87;;;0.90;;
10059;SDS011;5069;49.306;8.636;2024-02-23T06:56:03;2.97;;;0.90;;
10059;SDS011;5069;49.306;8.636;2024-02-23T06:59:05;4.90;;;0.83;;
10059;SDS011;5069;49.306;8.636;2024-02-23T07:02:07;5.90;;;0.90;;
10059;SDS011;5069;49.306;8.636;2024-02-23T07:05:08;4.07;;;0.87;;
10059;SDS011;5069;49.306;8.636;2024-02-23T07:08:10;4.97;;;1.10;;
10059;SDS011;5069;49.306;8.636;2024-02-23T07:11:12;3.47;;;0.80;;
10059;SDS011;5069;49.306;8.636;2024-02-23T07:14:14;3.80;;;0.70;;
10059;SDS011;5069;49.306;8.636;2024-02-23T07:17:18;5.10;;;1.07;;
10059;SDS011;5069;49.306;8.636;2024-02-23T07:20:20;2.57;;;0.90;;
10059;SDS011;5069;49.306;8.636;2024-02-23T07:23:21;2.37;;;0.97;;
10059;SDS011;5069;49.306;8.636;2024-02-23T07:26:24;3.73;;;0.70;;
10059;SDS011;5069;49.306;8.636;2024-02-23T07:29:25;4.00;;;0.90;;
10059;SDS011;5069;49.306;8.636;2024-02-23T07:32:27;3.70;;;0.80;;
10059;SDS011;5069;49.306;8.636;2024-02-23T07:35:31;3.17;;;0.77;;
10059;SDS011;5069;49.306;8.636;2024-02-23T07:38:33;4.20;;;0.90;;
10059;SDS011;5069;49.306;8.636;2024-02-23T07:41:34;4.47;;;1.00;;
10059;SDS011;5069;49.306;8.636;2024-02-23T07:44:36;3.03;;;0.80;;
10059;SDS011;5069;49.306;8.636;2024-02-23T07:47:38;3.83;;;1.10;;
10059;SDS011;5069;49.306;8.636;2024-02-23T07:50:40;4.37;;;1.17;;
10059;SDS011;5069;49.306;8.636;2024-02-23T07:53:42;3.17;;;0.97;;
10059;SDS011;5069;49.306;8.636;2024-02-23T07:56:48;5.43;;;1.20;;
10059;SDS011;5069;49.306;8.636;2024-02-23T07:59:49;4.80;;;1.00;;
10059;SDS011;5069;49.306;8.636;2024-02-23T08:02:51;6.27;;;1.30;;
10059;SDS011;5069;49.306;8.636;2024-02-23T08:05:52;7.70;;;1.10;;
10059;SDS011;5069;49.306;8.636;2024-02-23T08:08:54;6.83;;;1.50;;
10059;SDS011;5069;49.306;8.636;2024-02-23T08:11:56;2.97;;;0.83;;
10059;SDS011;5069;49.306;8.636;2024-02-23T08:14:58;3.50;;;1.10;;
10059;SDS011;5069;49.306;8.636;2024-02-23T08:17:59;6.03;;;1.13;;
10059;SDS011;5069;49.306;8.636;2024-02-23T08:21:01;4.20;;;1.17;;
10059;SDS011;5069;49.306;8.636;2024-02-23T08:24:04;5.50;;;1.33;;
10059;SDS011;5069;49.306;8.636;2024-02-23T08:27:06;4.90;;;1.10;;
10059;SDS011;5069;49.306;8.636;2024-02-23T08:30:08;3.40;;;1.00;;
10059;SDS011;5069;49.306;8.636;2024-02-23T08:33:09;3.20;;;1.10;;
10059;SDS011;5069;49.306;8.636;2024-02-23T08:36:11;4.47;;;1.10;;
10059;SDS011;5069;49.306;8.636;2024-02-23T08:39:13;4.67;;;0.90;;
10059;SDS011;5069;49.306;8.636;2024-02-23T08:42:14;3.03;;;0.97;;
10059;SDS011;5069;49.306;8.636;2024-02-23T08:45:16;3.70;;;1.13;;
10059;SDS011;5069;49.306;8.636;2024-02-23T08:48:18;5.53;;;1.40;;
10059;SDS011;5069;49.306;8.636;2024-02-23T08:51:19;4.17;;;0.80;;
10059;SDS011;5069;49.306;8.636;2024-02-23T08:54:21;4.20;;;1.00;;
10059;SDS011;5069;49.306;8.636;2024-02-23T08:57:22;3.70;;;0.90;;
10059;SDS011;5069;49.306;8.636;2024-02-23T09:00:24;2.57;;;0.90;;
10059;SDS011;5069;49.306;8.636;2024-02-23T09:03:26;4.80;;;1.10;;
10059;SDS011;5069;49.306;8.636;2024-02-23T09:06:27;3.80;;;1.07;;
10059;SDS011;5069;49.306;8.636;2024-02-23T09:09:29;2.30;;;0.97;;
10059;SDS011;5069;49.306;8.636;2024-02-23T09:12:31;4.10;;;0.90;;
10059;SDS011;5069;49.306;8.636;2024-02-23T09:15:32;5.47;;;1.10;;
10059;SDS011;5069;49.306;8.636;2024-02-23T09:18:34;1.77;;;0.80;;
10059;SDS011;5069;49.306;8.636;2024-02-23T09:21:36;3.53;;;0.87;;
10059;SDS011;5069;49.306;8.636;2024-02-23T09:24:41;4.40;;;1.00;;
10059;SDS011;5069;49.306;8.636;2024-02-23T09:27:42;7.43;;;1.37;;
10059;SDS011;5069;49.306;8.636;2024-02-23T09:30:45;5.30;;;0.87;;
10059;SDS011;5069;49.306;8.636;2024-02-23T09:33:46;6.33;;;1.00;;
10059;SDS011;5069;49.306;8.636;2024-02-23T09:36:50;3.60;;;0.97;;
10059;SDS011;5069;49.306;8.636;2024-02-23T09:39:51;6.03;;;1.50;;
10059;SDS011;5069;49.306;8.636;2024-02-23T09:42:55;4.73;;;1.20;;
10059;SDS011;5069;49.306;8.636;2024-02-23T09:45:58;4.70;;;0.90;;
10059;SDS011;5069;49.306;8.636;2024-02-23T09:49:01;3.90;;;1.03;;
10059;SDS011;5069;49.306;8.636;2024-02-23T09:52:05;4.83;;;1.00;;
10059;SDS011;5069;49.306;8.636;2024-02-23T09:55:09;3.70;;;1.10;;
10059;SDS011;5069;49.306;8.636;2024-02-23T09:58:11;6.20;;;1.33;;
10059;SDS011;5069;49.306;8.636;2024-02-23T10:01:17;6.67;;;1.27;;
10059;SDS011;5069;49.306;8.636;2024-02-23T10:04:28;3.53;;;0.90;;
10059;SDS011;5069;49.306;8.636;2024-02-23T10:07:32;5.77;;;1.10;;
10059;SDS011;5069;49.306;8.636;2024-02-23T10:10:34;5.07;;;1.30;;
10059;SDS011;5069;49.306;8.636;2024-02-23T10:13:39;3.97;;;1.20;;
10059;SDS011;5069;49.306;8.636;2024-02-23T10:16:42;4.87;;;1.10;;
10059;SDS011;5069;49.306;8.636;2024-02-23T10:19:44;5.03;;;1.10;;
10059;SDS011;5069;49.306;8.636;2024-02-23T10:22:45;7.23;;;1.40;;
10059;SDS011;5069;49.306;8.636;2024-02-23T10:25:47;7.40;;;1.50;;
10059;SDS011;5069;49.306;8.636;2024-02-23T10:28:48;4.30;;;1.10;;
10059;SDS011;5069;49.306;8.636;2024-02-23T10:31:51;2.67;;;0.87;;
10059;SDS011;5069;49.306;8.636;2024-02-23T10:34:54;4.80;;;1.77;;
10059;SDS011;5069;49.306;8.636;2024-02-23T10:37:57;4.57;;;1.00;;
10059;SDS011;5069;49.306;8.636;2024-02-23T10:40:59;4.13;;;1.00;;
10059;SDS011;5069;49.306;8.636;2024-02-23T10:44:06;3.57;;;0.97;;
10059;SDS011;5069;49.306;8.636;2024-02-23T10:47:08;3.57;;;1.00;;
10059;SDS011;5069;49.306;8.636;2024-02-23T10:50:10;3.80;;;0.83;;
10059;SDS011;5069;49.306;8.636;2024-02-23T10:58:07;6.83;;;1.37;;
10059;SDS011;5069;49.306;8.636;2024-02-23T11:01:12;5.27;;;1.20;;
10059;SDS011;5069;49.306;8.636;2024-02-23T11:04:15;5.67;;;0.70;;
10059;SDS011;5069;49.306;8.636;2024-02-23T11:07:19;2.53;;;0.97;;
10059;SDS011;5069;49.306;8.636;2024-02-23T11:10:21;5.10;;;1.13;;
10059;SDS011;5069;49.306;8.636;2024-02-23T11:13:38;4.20;;;1.00;;
10059;SDS011;5069;49.306;8.636;2024-02-23T11:16:40;4.87;;;1.23;;
10059;SDS011;5069;49.306;8.636;2024-02-23T11:19:43;3.63;;;1.00;;
10059;SDS011;5069;49.306;8.636;2024-02-23T11:22:47;3.10;;;1.10;;
10059;SDS011;5069;49.306;8.636;2024-02-23T11:29:11;3.73;;;0.97;;
10059;SDS011;5069;49.306;8.636;2024-02-23T11:32:14;6.27;;;1.00;;
10059;SDS011;5069;49.306;8.636;2024-02-23T11:35:18;3.47;;;1.13;;
10059;SDS011;5069;49.306;8.636;2024-02-23T11:38:22;5.00;;;1.07;;
10059;SDS011;5069;49.306;8.636;2024-02-23T11:41:25;3.57;;;1.20;;
10059;SDS011;5069;49.306;8.636;2024-02-23T11:44:27;4.53;;;1.00;;
10059;SDS011;5069;49.306;8.636;2024-02-23T11:47:29;5.90;;;1.10;;
10059;SDS011;5069;49.306;8.636;2024-02-23T11:50:30;5.73;;;1.23;;
10059;SDS011;5069;49.306;8.636;2024-02-23T11:53:32;4.27;;;1.20;;
10059;SDS011;5069;49.306;8.636;2024-02-23T11:56:33;3.63;;;1.00;;
10059;SDS011;5069;49.306;8.636;2024-02-23T11:59:35;4.70;;;1.17;;
10059;SDS011;5069;49.306;8.636;2024-02-23T12:02:37;5.47;;;1.13;;
10059;SDS011;5069;49.306;8.636;2024-02-23T12:05:39;4.30;;;1.30;;
10059;SDS011;5069;49.306;8.636;2024-02-23T12:08:40;3.17;;;1.37;;
10059;SDS011;5069;49.306;8.636;2024-02-23T12:11:42;3.20;;;1.10;;
10059;SDS011;5069;49.306;8.636;2024-02-23T12:14:44;4.40;;;1.10;;
10059;SDS011;5069;49.306;8.636;2024-02-23T12:17:46;1.80;;;0.80;;
10059;SDS011;5069;49.306;8.636;2024-02-23T12:20:49;3.83;;;1.00;;
10059;SDS011;5069;49.306;8.636;2024-02-23T12:23:51;5.10;;;1.43;;
10059;SDS011;5069;49.306;8.636;2024-02-23T12:26:53;3.07;;;0.90;;
10059;SDS011;5069;49.306;8.636;2024-02-23T12:29:56;4.83;;;1.10;;
10059;SDS011;5069;49.306;8.636;2024-02-23T12:33:04;6.93;;;1.10;;
10059;SDS011;5069;49.306;8.636;2024-02-23T12:36:08;2.70;;;0.93;;
10059;SDS011;5069;49.306;8.636;2024-02-23T12:39:11;4.67;;;1.20;;
10059;SDS011;5069;49.306;8.636;2024-02-23T12:42:13;4.63;;;0.77;;
10059;SDS011;5069;49.306;8.636;2024-02-23T12:45:14;5.00;;;1.20;;
10059;SDS011;5069;49.306;8.636;2024-02-23T12:48:16;2.10;;;1.00;;
10059;SDS011;5069;49.306;8.636;2024-02-23T12:51:18;3.93;;;1.10;;
10059;SDS011;5069;49.306;8.636;2024-02-23T12:54:19;3.33;;;1.10;;
10059;SDS011;5069;49.306;8.636;2024-02-23T12:57:21;4.00;;;1.10;;
10059;SDS011;5069;49.306;8.636;2024-02-23T13:00:22;4.07;;;1.00;;
10059;SDS011;5069;49.306;8.636;2024-02-23T13:03:24;2.60;;;1.00;;
10059;SDS011;5069;49.306;8.636;2024-02-23T13:06:28;3.77;;;1.20;;
10059;SDS011;5069;49.306;8.636;2024-02-23T13:09:29;4.03;;;1.00;;
10059;SDS011;5069;49.306;8.636;2024-02-23T13:12:31;5.70;;;1.23;;
10059;SDS011;5069;49.306;8.636;2024-02-23T13:15:32;5.40;;;1.23;;
10059;SDS011;5069;49.306;8.636;2024-02-23T13:18:34;3.53;;;1.07;;
10059;SDS011;5069;49.306;8.636;2024-02-23T13:21:35;2.43;;;0.90;;
10059;SDS011;5069;49.306;8.636;2024-02-23T13:24:37;4.40;;;1.40;;
10059;SDS011;5069;49.306;8.636;2024-02-23T13:27:41;2.37;;;0.80;;
10059;SDS011;5069;49.306;8.636;2024-02-23T13:30:42;2.90;;;1.00;;
10059;SDS011;5069;49.306;8.636;2024-02-23T13:33:45;2.43;;;0.80;;
10059;SDS011;5069;49.306;8.636;2024-02-23T13:36:46;1.93;;;0.90;;
10059;SDS011;5069;49.306;8.636;2024-02-23T13:39:48;3.83;;;1.20;;
10059;SDS011;5069;49.306;8.636;2024-02-23T13:42:50;3.50;;;1.30;;
10059;SDS011;5069;49.306;8.636;2024-02-23T13:45:53;4.00;;;1.03;;
10059;SDS011;5069;49.306;8.636;2024-02-23T13:49:02;3.10;;;1.00;;
10059;SDS011;5069;49.306;8.636;2024-02-23T13:52:06;5.40;;;1.33;;
10059;SDS011;5069;49.306;8.636;2024-02-23T13:55:08;4.17;;;1.10;;
10059;SDS011;5069;49.306;8.636;2024-02-23T13:58:10;4.80;;;1.00;;
10059;SDS011;5069;49.306;8.636;2024-02-23T14:01:13;2.73;;;0.90;;
10059;SDS011;5069;49.306;8.636;2024-02-23T14:04:14;4.23;;;1.17;;
10059;SDS011;5069;49.306;8.636;2024-02-23T14:07:16;4.27;;;1.20;;
10059;SDS011;5069;49.306;8.636;2024-02-23T14:10:19;6.23;;;1.50;;
10059;SDS011;5069;49.306;8.636;2024-02-23T14:13:21;2.37;;;1.00;;
10059;SDS011;5069;49.306;8.636;2024-02-23T14:16:23;4.03;;;1.20;;
10059;SDS011;5069;49.306;8.636;2024-02-23T14:19:24;3.13;;;1.30;;
10059;SDS011;5069;49.306;8.636;2024-02-23T14:22:26;2.60;;;0.90;;
10059;SDS011;5069;49.306;8.636;2024-02-23T14:25:31;3.10;;;1.00;;
10059;SDS011;5069;49.306;8.636;2024-02-23T14:28:32;2.70;;;0.90;;
10059;SDS011;5069;49.306;8.636;2024-02-23T14:31:34;5.23;;;1.30;;
10059;SDS011;5069;49.306;8.636;2024-02-23T14:34:35;4.33;;;1.07;;
10059;SDS011;5069;49.306;8.636;2024-02-23T14:37:37;2.20;;;0.87;;
10059;SDS011;5069;49.306;8.636;2024-02-23T14:40:38;2.80;;;1.03;;
10059;SDS011;5069;49.306;8.636;2024-02-23T14:43:40;2.93;;;0.97;;
10059;SDS011;5069;49.306;8.636;2024-02-23T14:46:41;5.10;;;1.43;;
10059;SDS011;5069;49.306;8.636;2024-02-23T14:49:44;3.40;;;1.23;;
10059;SDS011;5069;49.306;8.636;2024-02-23T14:52:46;1.70;;;0.90;;
10059;SDS011;5069;49.306;8.636;2024-02-23T14:55:47;4.93;;;1.03;;
10059;SDS011;5069;49.306;8.636;2024-02-23T14:58:49;5.57;;;1.40;;
10059;SDS011;5069;49.306;8.636;2024-02-23T15:01:51;3.50;;;1.10;;
10059;SDS011;5069;49.306;8.636;2024-02-23T15:04:52;5.13;;;1.07;;
10059;SDS011;5069;49.306;8.636;2024-02-23T15:07:54;6.70;;;1.33;;
10059;SDS011;5069;49.306;8.636;2024-02-23T15:10:56;5.63;;;1.17;;
10059;SDS011;5069;49.306;8.636;2024-02-23T15:13:58;2.70;;;1.10;;
10059;SDS011;5069;49.306;8.636;2024-02-23T15:16:59;5.97;;;1.00;;
10059;SDS011;5069;49.306;8.636;2024-02-23T15:20:01;1.90;;;0.90;;
10059;SDS011;5069;49.306;8.636;2024-02-23T15:23:03;2.83;;;1.10;;
10059;SDS011;5069;49.306;8.636;2024-02-23T15:26:05;3.63;;;0.90;;
10059;SDS011;5069;49.306;8.636;2024-02-23T15:29:12;2.67;;;0.90;;
10059;SDS011;5069;49.306;8.636;2024-02-23T15:32:14;2.30;;;1.00;;
10059;SDS011;5069;49.306;8.636;2024-02-23T15:35:18;2.80;;;1.30;;
10059;SDS011;5069;49.306;8.636;2024-02-23T15:38:20;4.17;;;1.10;;
10059;SDS011;5069;49.306;8.636;2024-02-23T15:41:21;3.97;;;1.10;;
10059;SDS011;5069;49.306;8.636;2024-02-23T15:44:23;4.80;;;0.90;;
10059;SDS011;5069;49.306;8.636;2024-02-23T15:47:25;5.93;;;1.13;;
10059;SDS011;5069;49.306;8.636;2024-02-23T15:50:26;3.07;;;0.90;;
10059;SDS011;5069;49.306;8.636;2024-02-23T15:53:49;1.73;;;1.00;;
10059;SDS011;5069;49.306;8.636;2024-02-23T15:56:50;4.00;;;1.20;;
10059;SDS011;5069;49.306;8.636;2024-02-23T15:59:52;1.87;;;0.80;;
10059;SDS011;5069;49.306;8.636;2024-02-23T16:03:05;3.27;;;0.90;;
10059;SDS011;5069;49.306;8.636;2024-02-23T16:06:06;7.20;;;1.27;;
10059;SDS011;5069;49.306;8.636;2024-02-23T16:09:08;3.03;;;1.10;;
10059;SDS011;5069;49.306;8.636;2024-02-23T16:12:10;1.77;;;1.17;;
10059;SDS011;5069;49.306;8.636;2024-02-23T16:15:12;3.53;;;1.60;;
10059;SDS011;5069;49.306;8.636;2024-02-23T16:26:49;5.00;;;1.30;;
10059;SDS011;5069;49.306;8.636;2024-02-23T16:29:51;5.00;;;2.10;;
10059;SDS011;5069;49.306;8.636;2024-02-23T16:32:52;3.50;;;1.87;;
10059;SDS011;5069;49.306;8.636;2024-02-23T16:35:54;4.57;;;1.70;;
10059;SDS011;5069;49.306;8.636;2024-02-23T16:38:58;3.90;;;1.43;;
10059;SDS011;5069;49.306;8.636;2024-02-23T16:42:00;7.87;;;2.30;;
10059;SDS011;5069;49.306;8.636;2024-02-23T16:45:01;3.77;;;1.80;;
10059;SDS011;5069;49.306;8.636;2024-02-23T16:48:03;5.27;;;1.60;;
10059;SDS011;5069;49.306;8.636;2024-02-23T16:51:09;3.37;;;1.30;;
10059;SDS011;5069;49.306;8.636;2024-02-23T16:54:10;4.43;;;1.20;;
10059;SDS011;5069;49.306;8.636;2024-02-23T16:57:14;3.30;;;1.60;;
10059;SDS011;5069;49.306;8.636;2024-02-23T17:00:15;5.93;;;1.77;;
10059;SDS011;5069;49.306;8.636;2024-02-23T17:03:17;9.70;;;1.70;;
10059;SDS011;5069;49.306;8.636;2024-02-23T17:06:19;5.20;;;1.70;;
10059;SDS011;5069;49.306;8.636;2024-02-23T17:09:20;5.67;;;1.87;;
10059;SDS011;5069;49.306;8.636;2024-02-23T17:12:22;4.87;;;1.80;;
10059;SDS011;5069;49.306;8.636;2024-02-23T17:15:24;3.80;;;1.60;;
10059;SDS011;5069;49.306;8.636;2024-02-23T17:18:25;8.53;;;2.40;;
10059;SDS011;5069;49.306;8.636;2024-02-23T17:21:27;6.53;;;2.57;;
10059;SDS011;5069;49.306;8.636;2024-02-23T17:24:28;6.07;;;2.30;;
10059;SDS011;5069;49.306;8.636;2024-02-23T17:27:30;5.57;;;2.53;;
10059;SDS011;5069;49.306;8.636;2024-02-23T17:30:31;10.07;;;4.20;;
10059;SDS011;5069;49.306;8.636;2024-02-23T17:33:33;7.97;;;3.57;;
10059;SDS011;5069;49.306;8.636;2024-02-23T17:36:35;6.17;;;2.87;;
10059;SDS011;5069;49.306;8.636;2024-02-23T17:39:37;6.87;;;2.93;;
10059;SDS011;5069;49.306;8.636;2024-02-23T17:42:38;7.23;;;2.50;;
10059;SDS011;5069;49.306;8.636;2024-02-23T17:45:40;9.67;;;5.00;;
10059;SDS011;5069;49.306;8.636;2024-02-23T17:48:41;13.90;;;9.07;;
10059;SDS011;5069;49.306;8.636;2024-02-23T17:51:43;10.87;;;5.20;;
10059;SDS011;5069;49.306;8.636;2024-02-23T17:54:44;8.30;;;3.43;;
10059;SDS011;5069;49.306;8.636;2024-02-23T17:57:46;6.43;;;3.13;;
10059;SDS011;5069;49.306;8.636;2024-02-23T18:00:47;10.50;;;3.60;;
10059;SDS011;5069;49.306;8.636;2024-02-23T18:03:50;6.13;;;3.10;;
10059;SDS011;5069;49.306;8.636;2024-02-23T18:06:51;7.57;;;3.37;;
10059;SDS011;5069;49.306;8.636;2024-02-23T18:09:55;7.20;;;3.67;;
10059;SDS011;5069;49.306;8.636;2024-02-23T18:12:57;5.20;;;2.57;;
10059;SDS011;5069;49.306;8.636;2024-02-23T18:16:00;9.87;;;4.23;;
10059;SDS011;5069;49.306;8.636;2024-02-23T18:19:04;9.23;;;5.00;;
10059;SDS011;5069;49.306;8.636;2024-02-23T18:22:06;13.00;;;6.97;;
10059;SDS011;5069;49.306;8.636;2024-02-23T18:25:08;10.87;;;5.47;;
10059;SDS011;5069;49.306;8.636;2024-02-23T18:28:09;10.80;;;6.37;;
10059;SDS011;5069;49.306;8.636;2024-02-23T18:31:11;9.70;;;4.70;;
10059;SDS011;5069;49.306;8.636;2024-02-23T18:34:13;5.97;;;2.80;;
10059;SDS011;5069;49.306;8.636;2024-02-23T18:37:14;6.03;;;2.40;;
10059;SDS011;5069;49.306;8.636;2024-02-23T18:40:16;4.63;;;2.20;;
10059;SDS011;5069;49.306;8.636;2024-02-23T18:43:17;4.90;;;2.57;;
10059;SDS011;5069;49.306;8.636;2024-02-23T18:46:19;8.13;;;2.80;;
10059;SDS011;5069;49.306;8.636;2024-02-23T18:49:20;4.73;;;2.17;;